sensor_id;sensor_type;location;lat;lon;timestamp;P1;durP1;ratioP1;P2;durP2;ratioP2
7444;SDS011;3764;48.126;11.594;2023-08-06T00:02:17;5.70;;;5.20;;
7444;SDS011;3764;48.126;11.594;2023-08-06T00:04:44;9.20;;;5.95;;
7444;SDS011;3764;48.126;11.594;2023-08-06T00:07:11;8.02;;;6.40;;
7444;SDS011;3764;48.126;11.594;2023-08-06T00:09:38;6.45;;;5.75;;
7444;SDS011;3764;48.126;11.594;2023-08-06T00:12:07;5.55;;;5.05;;
7444;SDS011;3764;48.126;11.594;2023-08-06T00:14:34;7.80;;;5.90;;
7444;SDS011;3764;48.126;11.594;2023-08-06T00:17:01;6.20;;;5.65;;
7444;SDS011;3764;48.126;11.594;2023-08-06T00:19:30;6.25;;;5.65;;
7444;SDS011;3764;48.126;11.594;2023-08-06T00:21:57;7.60;;;6.40;;
7444;SDS011;3764;48.126;11.594;2023-08-06T00:24:24;6.45;;;5.40;;
7444;SDS011;3764;48.126;11.594;2023-08-06T00:26:51;5.68;;;5.07;;
7444;SDS011;3764;48.126;11.594;2023-08-06T00:29:20;6.03;;;4.95;;
7444;SDS011;3764;48.126;11.594;2023-08-06T00:31:47;6.60;;;4.82;;
7444;SDS011;3764;48.126;11.594;2023-08-06T00:34:14;4.88;;;4.45;;
7444;SDS011;3764;48.126;11.594;2023-08-06T00:36:41;4.53;;;3.65;;
7444;SDS011;3764;48.126;11.594;2023-08-06T00:39:08;5.03;;;4.50;;
7444;SDS011;3764;48.126;11.594;2023-08-06T00:41:36;4.90;;;4.43;;
7444;SDS011;3764;48.126;11.594;2023-08-06T00:44:03;5.15;;;4.18;;
7444;SDS011;3764;48.126;11.594;2023-08-06T00:46:32;4.72;;;3.97;;
7444;SDS011;3764;48.126;11.594;2023-08-06T00:49:00;5.07;;;4.40;;
7444;SDS011;3764;48.126;11.594;2023-08-06T00:51:27;3.85;;;3.45;;
7444;SDS011;3764;48.126;11.594;2023-08-06T00:53:55;4.57;;;4.18;;
7444;SDS011;3764;48.126;11.594;2023-08-06T00:56:22;9.55;;;4.18;;
7444;SDS011;3764;48.126;11.594;2023-08-06T00:58:50;6.97;;;4.40;;
7444;SDS011;3764;48.126;11.594;2023-08-06T01:01:18;6.45;;;4.60;;
7444;SDS011;3764;48.126;11.594;2023-08-06T01:03:47;4.47;;;4.07;;
7444;SDS011;3764;48.126;11.594;2023-08-06T01:06:15;4.07;;;3.67;;
7444;SDS011;3764;48.126;11.594;2023-08-06T01:08:49;4.65;;;4.25;;
7444;SDS011;3764;48.126;11.594;2023-08-06T01:11:25;5.22;;;4.13;;
7444;SDS011;3764;48.126;11.594;2023-08-06T01:14:20;4.45;;;3.85;;
7444;SDS011;3764;48.126;11.594;2023-08-06T01:16:53;4.47;;;4.07;;
7444;SDS011;3764;48.126;11.594;2023-08-06T01:19:22;5.57;;;4.00;;
7444;SDS011;3764;48.126;11.594;2023-08-06T01:21:51;9.65;;;4.07;;
7444;SDS011;3764;48.126;11.594;2023-08-06T01:24:18;5.65;;;4.10;;
7444;SDS011;3764;48.126;11.594;2023-08-06T01:26:45;5.43;;;4.90;;
7444;SDS011;3764;48.126;11.594;2023-08-06T01:29:22;7.15;;;5.78;;
7444;SDS011;3764;48.126;11.594;2023-08-06T01:31:54;4.80;;;4.30;;
7444;SDS011;3764;48.126;11.594;2023-08-06T01:34:24;5.95;;;4.95;;
7444;SDS011;3764;48.126;11.594;2023-08-06T01:36:56;7.40;;;5.15;;
7444;SDS011;3764;48.126;11.594;2023-08-06T01:39:24;5.38;;;4.68;;
7444;SDS011;3764;48.126;11.594;2023-08-06T01:41:51;7.18;;;6.47;;
7444;SDS011;3764;48.126;11.594;2023-08-06T01:44:18;5.78;;;5.15;;
7444;SDS011;3764;48.126;11.594;2023-08-06T01:46:45;6.28;;;5.32;;
7444;SDS011;3764;48.126;11.594;2023-08-06T01:49:12;7.00;;;4.78;;
7444;SDS011;3764;48.126;11.594;2023-08-06T01:51:39;5.35;;;4.70;;
7444;SDS011;3764;48.126;11.594;2023-08-06T01:54:08;6.80;;;5.07;;
7444;SDS011;3764;48.126;11.594;2023-08-06T01:56:35;5.63;;;4.70;;
7444;SDS011;3764;48.126;11.594;2023-08-06T01:59:02;6.03;;;5.32;;
7444;SDS011;3764;48.126;11.594;2023-08-06T02:01:29;5.50;;;5.00;;
7444;SDS011;3764;48.126;11.594;2023-08-06T02:03:56;5.00;;;4.40;;
7444;SDS011;3764;48.126;11.594;2023-08-06T02:06:23;5.35;;;4.82;;
7444;SDS011;3764;48.126;11.594;2023-08-06T02:08:51;5.85;;;4.97;;
7444;SDS011;3764;48.126;11.594;2023-08-06T02:11:19;5.45;;;5.00;;
7444;SDS011;3764;48.126;11.594;2023-08-06T02:13:46;4.90;;;4.45;;
7444;SDS011;3764;48.126;11.594;2023-08-06T02:16:13;5.32;;;4.32;;
7444;SDS011;3764;48.126;11.594;2023-08-06T02:18:40;5.68;;;4.68;;
7444;SDS011;3764;48.126;11.594;2023-08-06T02:21:07;4.85;;;4.28;;
7444;SDS011;3764;48.126;11.594;2023-08-06T02:23:35;4.25;;;3.85;;
7444;SDS011;3764;48.126;11.594;2023-08-06T02:26:02;4.00;;;3.60;;
7444;SDS011;3764;48.126;11.594;2023-08-06T02:28:31;4.70;;;4.13;;
7444;SDS011;3764;48.126;11.594;2023-08-06T02:30:59;6.20;;;3.70;;
7444;SDS011;3764;48.126;11.594;2023-08-06T02:33:26;5.70;;;4.30;;
7444;SDS011;3764;48.126;11.594;2023-08-06T02:35:58;3.97;;;3.38;;
7444;SDS011;3764;48.126;11.594;2023-08-06T02:38:27;5.80;;;3.90;;
7444;SDS011;3764;48.126;11.594;2023-08-06T02:40:54;5.05;;;4.03;;
7444;SDS011;3764;48.126;11.594;2023-08-06T02:43:21;4.15;;;3.67;;
7444;SDS011;3764;48.126;11.594;2023-08-06T02:45:49;4.70;;;3.78;;
7444;SDS011;3764;48.126;11.594;2023-08-06T02:48:16;3.67;;;3.28;;
7444;SDS011;3764;48.126;11.594;2023-08-06T02:50:44;3.78;;;3.47;;
7444;SDS011;3764;48.126;11.594;2023-08-06T02:53:11;3.63;;;3.33;;
7444;SDS011;3764;48.126;11.594;2023-08-06T02:55:38;3.72;;;3.35;;
7444;SDS011;3764;48.126;11.594;2023-08-06T02:58:12;4.20;;;3.33;;
7444;SDS011;3764;48.126;11.594;2023-08-06T03:00:40;4.30;;;3.90;;
7444;SDS011;3764;48.126;11.594;2023-08-06T03:03:08;3.58;;;3.28;;
7444;SDS011;3764;48.126;11.594;2023-08-06T03:05:36;5.05;;;3.90;;
7444;SDS011;3764;48.126;11.594;2023-08-06T03:08:03;3.80;;;3.50;;
7444;SDS011;3764;48.126;11.594;2023-08-06T03:10:30;3.95;;;3.55;;
7444;SDS011;3764;48.126;11.594;2023-08-06T03:12:57;3.80;;;3.40;;
7444;SDS011;3764;48.126;11.594;2023-08-06T03:15:24;3.45;;;3.15;;
7444;SDS011;3764;48.126;11.594;2023-08-06T03:17:52;4.28;;;3.42;;
7444;SDS011;3764;48.126;11.594;2023-08-06T03:20:23;3.58;;;3.28;;
7444;SDS011;3764;48.126;11.594;2023-08-06T03:22:51;2.97;;;2.78;;
7444;SDS011;3764;48.126;11.594;2023-08-06T03:25:18;3.65;;;3.35;;
7444;SDS011;3764;48.126;11.594;2023-08-06T03:27:45;3.85;;;3.53;;
7444;SDS011;3764;48.126;11.594;2023-08-06T03:30:13;3.58;;;3.28;;
7444;SDS011;3764;48.126;11.594;2023-08-06T03:32:40;3.20;;;2.90;;
7444;SDS011;3764;48.126;11.594;2023-08-06T03:35:07;3.08;;;2.80;;
7444;SDS011;3764;48.126;11.594;2023-08-06T03:37:36;5.45;;;3.00;;
7444;SDS011;3764;48.126;11.594;2023-08-06T03:40:03;3.67;;;3.03;;
7444;SDS011;3764;48.126;11.594;2023-08-06T03:42:31;3.90;;;2.97;;
7444;SDS011;3764;48.126;11.594;2023-08-06T03:44:58;2.83;;;2.63;;
7444;SDS011;3764;48.126;11.594;2023-08-06T03:47:25;3.00;;;2.70;;
7444;SDS011;3764;48.126;11.594;2023-08-06T03:49:52;3.35;;;2.90;;
7444;SDS011;3764;48.126;11.594;2023-08-06T03:52:20;2.78;;;2.53;;
7444;SDS011;3764;48.126;11.594;2023-08-06T03:54:48;3.05;;;2.42;;
7444;SDS011;3764;48.126;11.594;2023-08-06T03:57:15;6.10;;;3.38;;
7444;SDS011;3764;48.126;11.594;2023-08-06T03:59:42;5.60;;;3.20;;
7444;SDS011;3764;48.126;11.594;2023-08-06T04:02:09;3.40;;;3.10;;
7444;SDS011;3764;48.126;11.594;2023-08-06T04:04:36;3.40;;;2.80;;
7444;SDS011;3764;48.126;11.594;2023-08-06T04:07:04;3.90;;;2.60;;
7444;SDS011;3764;48.126;11.594;2023-08-06T04:09:31;3.55;;;2.55;;
7444;SDS011;3764;48.126;11.594;2023-08-06T04:11:59;6.90;;;3.08;;
7444;SDS011;3764;48.126;11.594;2023-08-06T04:14:28;3.28;;;2.85;;
7444;SDS011;3764;48.126;11.594;2023-08-06T04:16:55;3.90;;;2.92;;
7444;SDS011;3764;48.126;11.594;2023-08-06T04:19:22;3.03;;;2.83;;
7444;SDS011;3764;48.126;11.594;2023-08-06T04:21:49;7.20;;;2.80;;
7444;SDS011;3764;48.126;11.594;2023-08-06T04:24:17;2.60;;;2.40;;
7444;SDS011;3764;48.126;11.594;2023-08-06T04:26:44;3.03;;;2.65;;
7444;SDS011;3764;48.126;11.594;2023-08-06T04:29:12;2.90;;;2.50;;
7444;SDS011;3764;48.126;11.594;2023-08-06T04:31:39;2.72;;;2.50;;
7444;SDS011;3764;48.126;11.594;2023-08-06T04:34:06;3.10;;;2.17;;
7444;SDS011;3764;48.126;11.594;2023-08-06T04:36:34;4.85;;;2.47;;
7444;SDS011;3764;48.126;11.594;2023-08-06T04:39:01;4.60;;;2.55;;
7444;SDS011;3764;48.126;11.594;2023-08-06T04:41:28;5.10;;;2.50;;
7444;SDS011;3764;48.126;11.594;2023-08-06T04:43:56;2.67;;;2.38;;
7444;SDS011;3764;48.126;11.594;2023-08-06T04:46:25;3.10;;;2.72;;
7444;SDS011;3764;48.126;11.594;2023-08-06T04:48:52;6.28;;;3.17;;
7444;SDS011;3764;48.126;11.594;2023-08-06T04:51:19;4.32;;;2.47;;
7444;SDS011;3764;48.126;11.594;2023-08-06T04:53:46;3.60;;;2.58;;
7444;SDS011;3764;48.126;11.594;2023-08-06T04:56:13;3.75;;;2.47;;
7444;SDS011;3764;48.126;11.594;2023-08-06T04:58:40;6.65;;;2.85;;
7444;SDS011;3764;48.126;11.594;2023-08-06T05:01:07;5.75;;;3.03;;
7444;SDS011;3764;48.126;11.594;2023-08-06T05:03:36;6.45;;;3.40;;
7444;SDS011;3764;48.126;11.594;2023-08-06T05:06:03;6.60;;;2.83;;
7444;SDS011;3764;48.126;11.594;2023-08-06T05:08:31;3.00;;;2.45;;
7444;SDS011;3764;48.126;11.594;2023-08-06T05:10:58;3.30;;;2.80;;
7444;SDS011;3764;48.126;11.594;2023-08-06T05:13:25;2.92;;;2.63;;
7444;SDS011;3764;48.126;11.594;2023-08-06T05:15:53;3.33;;;2.70;;
7444;SDS011;3764;48.126;11.594;2023-08-06T05:18:20;3.35;;;2.67;;
7444;SDS011;3764;48.126;11.594;2023-08-06T05:20:49;2.30;;;2.10;;
7444;SDS011;3764;48.126;11.594;2023-08-06T05:23:16;3.28;;;2.55;;
7444;SDS011;3764;48.126;11.594;2023-08-06T05:25:43;4.40;;;2.85;;
7444;SDS011;3764;48.126;11.594;2023-08-06T05:28:10;2.20;;;2.00;;
7444;SDS011;3764;48.126;11.594;2023-08-06T05:30:38;3.85;;;2.78;;
7444;SDS011;3764;48.126;11.594;2023-08-06T05:33:06;3.00;;;2.70;;
7444;SDS011;3764;48.126;11.594;2023-08-06T05:35:33;2.80;;;2.30;;
7444;SDS011;3764;48.126;11.594;2023-08-06T05:38:01;3.33;;;2.47;;
7444;SDS011;3764;48.126;11.594;2023-08-06T05:40:29;2.72;;;2.30;;
7444;SDS011;3764;48.126;11.594;2023-08-06T05:42:56;3.38;;;2.53;;
7444;SDS011;3764;48.126;11.594;2023-08-06T05:45:23;3.28;;;2.60;;
7444;SDS011;3764;48.126;11.594;2023-08-06T05:47:50;2.40;;;2.20;;
7444;SDS011;3764;48.126;11.594;2023-08-06T05:50:19;3.15;;;2.45;;
7444;SDS011;3764;48.126;11.594;2023-08-06T05:52:46;3.20;;;2.50;;
7444;SDS011;3764;48.126;11.594;2023-08-06T05:55:14;2.65;;;2.45;;
7444;SDS011;3764;48.126;11.594;2023-08-06T05:57:41;3.60;;;2.10;;
7444;SDS011;3764;48.126;11.594;2023-08-06T06:00:09;3.30;;;2.67;;
7444;SDS011;3764;48.126;11.594;2023-08-06T06:02:37;2.97;;;2.05;;
7444;SDS011;3764;48.126;11.594;2023-08-06T06:05:04;2.83;;;2.38;;
7444;SDS011;3764;48.126;11.594;2023-08-06T06:07:31;3.30;;;1.70;;
7444;SDS011;3764;48.126;11.594;2023-08-06T06:09:58;3.85;;;2.38;;
7444;SDS011;3764;48.126;11.594;2023-08-06T06:12:27;3.35;;;1.77;;
7444;SDS011;3764;48.126;11.594;2023-08-06T06:14:54;3.75;;;2.30;;
7444;SDS011;3764;48.126;11.594;2023-08-06T06:17:21;2.28;;;2.08;;
7444;SDS011;3764;48.126;11.594;2023-08-06T06:19:48;2.85;;;2.65;;
7444;SDS011;3764;48.126;11.594;2023-08-06T06:22:15;4.00;;;2.30;;
7444;SDS011;3764;48.126;11.594;2023-08-06T06:24:42;2.72;;;2.35;;
7444;SDS011;3764;48.126;11.594;2023-08-06T06:27:09;3.30;;;2.45;;
7444;SDS011;3764;48.126;11.594;2023-08-06T06:29:38;2.50;;;2.17;;
7444;SDS011;3764;48.126;11.594;2023-08-06T06:32:05;2.85;;;2.10;;
7444;SDS011;3764;48.126;11.594;2023-08-06T06:34:33;2.17;;;1.70;;
7444;SDS011;3764;48.126;11.594;2023-08-06T06:37:00;3.70;;;1.90;;
7444;SDS011;3764;48.126;11.594;2023-08-06T06:39:27;2.15;;;1.95;;
7444;SDS011;3764;48.126;11.594;2023-08-06T06:41:54;1.95;;;1.60;;
7444;SDS011;3764;48.126;11.594;2023-08-06T06:44:21;2.30;;;1.90;;
7444;SDS011;3764;48.126;11.594;2023-08-06T06:46:50;3.75;;;1.90;;
7444;SDS011;3764;48.126;11.594;2023-08-06T06:49:17;2.22;;;1.52;;
7444;SDS011;3764;48.126;11.594;2023-08-06T06:51:44;7.07;;;3.17;;
7444;SDS011;3764;48.126;11.594;2023-08-06T06:54:11;1.75;;;1.50;;
7444;SDS011;3764;48.126;11.594;2023-08-06T06:56:38;3.25;;;1.92;;
7444;SDS011;3764;48.126;11.594;2023-08-06T06:59:05;2.58;;;2.10;;
7444;SDS011;3764;48.126;11.594;2023-08-06T07:01:32;2.63;;;2.00;;
7444;SDS011;3764;48.126;11.594;2023-08-06T07:04:00;3.67;;;2.80;;
7444;SDS011;3764;48.126;11.594;2023-08-06T07:06:30;3.00;;;1.75;;
7444;SDS011;3764;48.126;11.594;2023-08-06T07:08:57;2.08;;;1.88;;
7444;SDS011;3764;48.126;11.594;2023-08-06T07:11:24;2.28;;;1.73;;
7444;SDS011;3764;48.126;11.594;2023-08-06T07:13:55;1.85;;;1.50;;
7444;SDS011;3764;48.126;11.594;2023-08-06T07:16:24;2.42;;;1.67;;
7444;SDS011;3764;48.126;11.594;2023-08-06T07:18:51;1.25;;;1.05;;
7444;SDS011;3764;48.126;11.594;2023-08-06T07:21:20;2.00;;;1.20;;
7444;SDS011;3764;48.126;11.594;2023-08-06T07:23:47;3.30;;;1.60;;
7444;SDS011;3764;48.126;11.594;2023-08-06T07:26:15;4.50;;;1.30;;
7444;SDS011;3764;48.126;11.594;2023-08-06T07:28:42;2.05;;;1.20;;
7444;SDS011;3764;48.126;11.594;2023-08-06T07:31:10;3.30;;;1.30;;
7444;SDS011;3764;48.126;11.594;2023-08-06T07:33:37;1.33;;;0.95;;
7444;SDS011;3764;48.126;11.594;2023-08-06T07:36:08;1.52;;;1.20;;
7444;SDS011;3764;48.126;11.594;2023-08-06T07:38:37;2.13;;;1.17;;
7444;SDS011;3764;48.126;11.594;2023-08-06T07:41:05;6.28;;;1.48;;
7444;SDS011;3764;48.126;11.594;2023-08-06T07:43:32;1.25;;;0.90;;
7444;SDS011;3764;48.126;11.594;2023-08-06T07:46:01;2.55;;;1.15;;
7444;SDS011;3764;48.126;11.594;2023-08-06T07:48:28;1.77;;;0.90;;
7444;SDS011;3764;48.126;11.594;2023-08-06T07:50:56;1.42;;;1.02;;
7444;SDS011;3764;48.126;11.594;2023-08-06T07:53:24;1.45;;;1.00;;
7444;SDS011;3764;48.126;11.594;2023-08-06T07:55:56;1.48;;;1.23;;
7444;SDS011;3764;48.126;11.594;2023-08-06T07:58:24;2.33;;;1.30;;
7444;SDS011;3764;48.126;11.594;2023-08-06T08:00:51;5.60;;;1.60;;
7444;SDS011;3764;48.126;11.594;2023-08-06T08:03:18;3.75;;;1.30;;
7444;SDS011;3764;48.126;11.594;2023-08-06T08:05:48;2.55;;;1.38;;
7444;SDS011;3764;48.126;11.594;2023-08-06T08:08:17;2.90;;;1.58;;
7444;SDS011;3764;48.126;11.594;2023-08-06T08:10:44;3.90;;;1.20;;
7444;SDS011;3764;48.126;11.594;2023-08-06T08:13:12;4.75;;;1.30;;
7444;SDS011;3764;48.126;11.594;2023-08-06T08:15:39;1.40;;;1.27;;
7444;SDS011;3764;48.126;11.594;2023-08-06T08:18:07;2.25;;;1.15;;
7444;SDS011;3764;48.126;11.594;2023-08-06T08:20:34;6.22;;;2.90;;
7444;SDS011;3764;48.126;11.594;2023-08-06T08:23:01;2.42;;;1.30;;
7444;SDS011;3764;48.126;11.594;2023-08-06T08:25:29;2.33;;;0.90;;
7444;SDS011;3764;48.126;11.594;2023-08-06T08:27:57;2.45;;;1.08;;
7444;SDS011;3764;48.126;11.594;2023-08-06T08:30:25;1.40;;;1.00;;
7444;SDS011;3764;48.126;11.594;2023-08-06T08:32:52;2.55;;;1.30;;
7444;SDS011;3764;48.126;11.594;2023-08-06T08:35:19;3.13;;;1.40;;
7444;SDS011;3764;48.126;11.594;2023-08-06T08:37:46;2.80;;;2.28;;
7444;SDS011;3764;48.126;11.594;2023-08-06T08:40:14;1.60;;;1.10;;
7444;SDS011;3764;48.126;11.594;2023-08-06T08:42:41;2.35;;;1.05;;
7444;SDS011;3764;48.126;11.594;2023-08-06T08:48:03;1.90;;;1.00;;
7444;SDS011;3764;48.126;11.594;2023-08-06T08:50:30;2.15;;;1.00;;
7444;SDS011;3764;48.126;11.594;2023-08-06T08:52:58;1.00;;;0.65;;
7444;SDS011;3764;48.126;11.594;2023-08-06T08:55:25;1.23;;;0.65;;
7444;SDS011;3764;48.126;11.594;2023-08-06T08:57:53;3.65;;;1.00;;
7444;SDS011;3764;48.126;11.594;2023-08-06T09:00:20;1.00;;;0.63;;
7444;SDS011;3764;48.126;11.594;2023-08-06T09:02:47;1.90;;;0.70;;
7444;SDS011;3764;48.126;11.594;2023-08-06T09:05:17;2.25;;;0.60;;
7444;SDS011;3764;48.126;11.594;2023-08-06T09:07:48;1.48;;;0.80;;
7444;SDS011;3764;48.126;11.594;2023-08-06T09:10:17;1.40;;;0.80;;
7444;SDS011;3764;48.126;11.594;2023-08-06T09:12:48;1.45;;;1.05;;
7444;SDS011;3764;48.126;11.594;2023-08-06T09:15:18;1.33;;;0.60;;
7444;SDS011;3764;48.126;11.594;2023-08-06T09:17:45;1.90;;;0.98;;
7444;SDS011;3764;48.126;11.594;2023-08-06T09:20:13;5.82;;;2.00;;
7444;SDS011;3764;48.126;11.594;2023-08-06T09:22:42;1.35;;;0.82;;
7444;SDS011;3764;48.126;11.594;2023-08-06T09:25:10;1.85;;;0.60;;
7444;SDS011;3764;48.126;11.594;2023-08-06T09:27:39;1.30;;;0.60;;
7444;SDS011;3764;48.126;11.594;2023-08-06T09:30:06;0.90;;;0.50;;
7444;SDS011;3764;48.126;11.594;2023-08-06T09:32:47;1.70;;;0.65;;
7444;SDS011;3764;48.126;11.594;2023-08-06T09:35:16;4.10;;;0.68;;
7444;SDS011;3764;48.126;11.594;2023-08-06T09:37:45;2.25;;;0.90;;
7444;SDS011;3764;48.126;11.594;2023-08-06T09:40:25;4.13;;;1.35;;
7444;SDS011;3764;48.126;11.594;2023-08-06T09:42:53;1.00;;;0.68;;
7444;SDS011;3764;48.126;11.594;2023-08-06T09:45:21;2.53;;;0.85;;
7444;SDS011;3764;48.126;11.594;2023-08-06T09:47:49;0.80;;;0.50;;
7444;SDS011;3764;48.126;11.594;2023-08-06T09:50:29;1.77;;;0.95;;
7444;SDS011;3764;48.126;11.594;2023-08-06T09:53:00;2.63;;;0.70;;
7444;SDS011;3764;48.126;11.594;2023-08-06T09:55:27;0.90;;;0.50;;
7444;SDS011;3764;48.126;11.594;2023-08-06T09:57:55;3.53;;;0.60;;
7444;SDS011;3764;48.126;11.594;2023-08-06T10:00:22;1.58;;;0.50;;
7444;SDS011;3764;48.126;11.594;2023-08-06T10:02:50;2.50;;;0.70;;
7444;SDS011;3764;48.126;11.594;2023-08-06T10:05:21;1.02;;;0.60;;
7444;SDS011;3764;48.126;11.594;2023-08-06T10:07:49;0.93;;;0.55;;
7444;SDS011;3764;48.126;11.594;2023-08-06T10:10:18;1.00;;;0.60;;
7444;SDS011;3764;48.126;11.594;2023-08-06T10:12:46;1.92;;;0.68;;
7444;SDS011;3764;48.126;11.594;2023-08-06T10:15:16;2.33;;;0.80;;
7444;SDS011;3764;48.126;11.594;2023-08-06T10:17:46;1.10;;;0.70;;
7444;SDS011;3764;48.126;11.594;2023-08-06T10:20:16;1.00;;;0.50;;
7444;SDS011;3764;48.126;11.594;2023-08-06T10:22:43;1.00;;;0.60;;
7444;SDS011;3764;48.126;11.594;2023-08-06T10:25:11;1.23;;;0.60;;
7444;SDS011;3764;48.126;11.594;2023-08-06T10:27:52;3.42;;;0.70;;
7444;SDS011;3764;48.126;11.594;2023-08-06T10:30:21;1.45;;;0.60;;
7444;SDS011;3764;48.126;11.594;2023-08-06T10:32:51;1.67;;;0.50;;
7444;SDS011;3764;48.126;11.594;2023-08-06T10:35:30;2.00;;;0.60;;
7444;SDS011;3764;48.126;11.594;2023-08-06T10:37:58;0.90;;;0.50;;
7444;SDS011;3764;48.126;11.594;2023-08-06T10:40:27;2.97;;;0.90;;
7444;SDS011;3764;48.126;11.594;2023-08-06T10:42:58;0.90;;;0.50;;
7444;SDS011;3764;48.126;11.594;2023-08-06T10:45:26;1.23;;;0.70;;
7444;SDS011;3764;48.126;11.594;2023-08-06T10:47:54;2.65;;;0.60;;
7444;SDS011;3764;48.126;11.594;2023-08-06T10:50:22;1.38;;;0.60;;
7444;SDS011;3764;48.126;11.594;2023-08-06T10:52:49;2.92;;;0.50;;
7444;SDS011;3764;48.126;11.594;2023-08-06T10:55:22;0.93;;;0.60;;
7444;SDS011;3764;48.126;11.594;2023-08-06T10:57:51;1.17;;;0.60;;
7444;SDS011;3764;48.126;11.594;2023-08-06T11:00:20;0.90;;;0.60;;
7444;SDS011;3764;48.126;11.594;2023-08-06T11:02:49;1.20;;;0.60;;
7444;SDS011;3764;48.126;11.594;2023-08-06T11:05:16;1.10;;;0.70;;
7444;SDS011;3764;48.126;11.594;2023-08-06T11:07:43;1.15;;;0.50;;
7444;SDS011;3764;48.126;11.594;2023-08-06T11:10:13;0.90;;;0.60;;
7444;SDS011;3764;48.126;11.594;2023-08-06T11:12:40;1.08;;;0.55;;
7444;SDS011;3764;48.126;11.594;2023-08-06T11:15:09;1.08;;;0.50;;
7444;SDS011;3764;48.126;11.594;2023-08-06T11:17:37;1.50;;;0.60;;
7444;SDS011;3764;48.126;11.594;2023-08-06T11:20:07;1.70;;;0.57;;
7444;SDS011;3764;48.126;11.594;2023-08-06T11:22:35;0.90;;;0.50;;
7444;SDS011;3764;48.126;11.594;2023-08-06T11:25:03;1.48;;;0.50;;
7444;SDS011;3764;48.126;11.594;2023-08-06T11:27:31;2.53;;;0.60;;
7444;SDS011;3764;48.126;11.594;2023-08-06T11:29:59;0.90;;;0.60;;
7444;SDS011;3764;48.126;11.594;2023-08-06T11:32:28;0.80;;;0.50;;
7444;SDS011;3764;48.126;11.594;2023-08-06T11:34:55;1.35;;;0.60;;
7444;SDS011;3764;48.126;11.594;2023-08-06T11:37:22;1.30;;;0.60;;
7444;SDS011;3764;48.126;11.594;2023-08-06T11:39:51;0.90;;;0.50;;
7444;SDS011;3764;48.126;11.594;2023-08-06T11:42:18;0.80;;;0.50;;
7444;SDS011;3764;48.126;11.594;2023-08-06T11:44:45;3.45;;;0.60;;
7444;SDS011;3764;48.126;11.594;2023-08-06T11:47:13;0.93;;;0.55;;
7444;SDS011;3764;48.126;11.594;2023-08-06T11:49:44;1.60;;;0.50;;
7444;SDS011;3764;48.126;11.594;2023-08-06T11:52:19;0.90;;;0.50;;
7444;SDS011;3764;48.126;11.594;2023-08-06T11:54:59;1.55;;;0.60;;
7444;SDS011;3764;48.126;11.594;2023-08-06T11:57:29;0.90;;;0.60;;
7444;SDS011;3764;48.126;11.594;2023-08-06T12:00:03;1.42;;;0.50;;
7444;SDS011;3764;48.126;11.594;2023-08-06T12:02:32;1.65;;;1.10;;
7444;SDS011;3764;48.126;11.594;2023-08-06T12:05:04;1.50;;;0.60;;
7444;SDS011;3764;48.126;11.594;2023-08-06T12:07:37;0.80;;;0.50;;
7444;SDS011;3764;48.126;11.594;2023-08-06T12:10:06;2.13;;;0.60;;
7444;SDS011;3764;48.126;11.594;2023-08-06T12:12:33;1.88;;;0.88;;
7444;SDS011;3764;48.126;11.594;2023-08-06T12:15:00;0.90;;;0.50;;
7444;SDS011;3764;48.126;11.594;2023-08-06T12:17:28;0.80;;;0.50;;
7444;SDS011;3764;48.126;11.594;2023-08-06T12:19:55;4.13;;;0.60;;
7444;SDS011;3764;48.126;11.594;2023-08-06T12:22:23;0.80;;;0.50;;
7444;SDS011;3764;48.126;11.594;2023-08-06T12:24:51;1.00;;;0.60;;
7444;SDS011;3764;48.126;11.594;2023-08-06T12:27:18;0.80;;;0.50;;
7444;SDS011;3764;48.126;11.594;2023-08-06T12:32:14;3.33;;;0.70;;
7444;SDS011;3764;48.126;11.594;2023-08-06T12:34:42;1.00;;;0.60;;
7444;SDS011;3764;48.126;11.594;2023-08-06T12:37:09;1.00;;;0.63;;
7444;SDS011;3764;48.126;11.594;2023-08-06T12:39:38;0.90;;;0.60;;
7444;SDS011;3764;48.126;11.594;2023-08-06T12:42:05;1.00;;;0.80;;
7444;SDS011;3764;48.126;11.594;2023-08-06T12:44:32;1.33;;;0.60;;
7444;SDS011;3764;48.126;11.594;2023-08-06T12:46:59;0.90;;;0.57;;
7444;SDS011;3764;48.126;11.594;2023-08-06T12:49:26;0.90;;;0.60;;
7444;SDS011;3764;48.126;11.594;2023-08-06T12:51:54;0.90;;;0.60;;
7444;SDS011;3764;48.126;11.594;2023-08-06T12:54:25;0.90;;;0.60;;
7444;SDS011;3764;48.126;11.594;2023-08-06T12:56:53;0.88;;;0.50;;
7444;SDS011;3764;48.126;11.594;2023-08-06T12:59:21;0.93;;;0.60;;
7444;SDS011;3764;48.126;11.594;2023-08-06T13:01:48;1.00;;;0.70;;
7444;SDS011;3764;48.126;11.594;2023-08-06T13:04:15;2.00;;;0.70;;
7444;SDS011;3764;48.126;11.594;2023-08-06T13:06:42;1.27;;;0.50;;
7444;SDS011;3764;48.126;11.594;2023-08-06T13:09:09;0.85;;;0.50;;
7444;SDS011;3764;48.126;11.594;2023-08-06T13:11:37;1.15;;;0.63;;
7444;SDS011;3764;48.126;11.594;2023-08-06T13:14:07;5.50;;;0.70;;
7444;SDS011;3764;48.126;11.594;2023-08-06T13:16:35;1.00;;;0.50;;
7444;SDS011;3764;48.126;11.594;2023-08-06T13:19:03;0.90;;;0.50;;
7444;SDS011;3764;48.126;11.594;2023-08-06T13:21:34;1.10;;;0.60;;
7444;SDS011;3764;48.126;11.594;2023-08-06T13:24:01;0.98;;;0.50;;
7444;SDS011;3764;48.126;11.594;2023-08-06T13:26:29;0.90;;;0.50;;
7444;SDS011;3764;48.126;11.594;2023-08-06T13:28:56;0.95;;;0.52;;
7444;SDS011;3764;48.126;11.594;2023-08-06T13:31:26;2.15;;;0.50;;
7444;SDS011;3764;48.126;11.594;2023-08-06T13:33:53;0.80;;;0.47;;
7444;SDS011;3764;48.126;11.594;2023-08-06T13:36:23;3.30;;;2.05;;
7444;SDS011;3764;48.126;11.594;2023-08-06T13:38:50;1.33;;;0.77;;
7444;SDS011;3764;48.126;11.594;2023-08-06T13:41:17;1.90;;;0.50;;
7444;SDS011;3764;48.126;11.594;2023-08-06T13:43:44;1.00;;;0.75;;
7444;SDS011;3764;48.126;11.594;2023-08-06T13:46:12;0.90;;;0.57;;
7444;SDS011;3764;48.126;11.594;2023-08-06T13:48:44;0.90;;;0.60;;
7444;SDS011;3764;48.126;11.594;2023-08-06T13:51:13;0.90;;;0.60;;
7444;SDS011;3764;48.126;11.594;2023-08-06T13:53:40;1.65;;;0.70;;
7444;SDS011;3764;48.126;11.594;2023-08-06T13:56:08;2.10;;;0.60;;
7444;SDS011;3764;48.126;11.594;2023-08-06T13:58:36;1.00;;;0.60;;
7444;SDS011;3764;48.126;11.594;2023-08-06T14:01:03;0.93;;;0.60;;
7444;SDS011;3764;48.126;11.594;2023-08-06T14:03:31;1.00;;;0.68;;
7444;SDS011;3764;48.126;11.594;2023-08-06T14:05:59;0.90;;;0.55;;
7444;SDS011;3764;48.126;11.594;2023-08-06T14:08:26;0.95;;;0.50;;
7444;SDS011;3764;48.126;11.594;2023-08-06T14:10:53;1.40;;;0.70;;
7444;SDS011;3764;48.126;11.594;2023-08-06T14:13:21;1.15;;;0.50;;
7444;SDS011;3764;48.126;11.594;2023-08-06T14:15:48;0.90;;;0.60;;
7444;SDS011;3764;48.126;11.594;2023-08-06T14:18:17;0.98;;;0.60;;
7444;SDS011;3764;48.126;11.594;2023-08-06T14:20:44;1.23;;;0.70;;
7444;SDS011;3764;48.126;11.594;2023-08-06T14:23:12;0.90;;;0.60;;
7444;SDS011;3764;48.126;11.594;2023-08-06T14:25:40;1.55;;;0.82;;
7444;SDS011;3764;48.126;11.594;2023-08-06T14:28:07;1.10;;;1.00;;
7444;SDS011;3764;48.126;11.594;2023-08-06T14:30:34;1.27;;;0.93;;
7444;SDS011;3764;48.126;11.594;2023-08-06T14:33:01;3.72;;;0.70;;
7444;SDS011;3764;48.126;11.594;2023-08-06T14:35:28;1.35;;;0.70;;
7444;SDS011;3764;48.126;11.594;2023-08-06T14:37:55;1.88;;;0.70;;
7444;SDS011;3764;48.126;11.594;2023-08-06T14:40:24;1.30;;;0.85;;
7444;SDS011;3764;48.126;11.594;2023-08-06T14:42:53;1.00;;;0.60;;
7444;SDS011;3764;48.126;11.594;2023-08-06T14:45:21;2.92;;;1.38;;
7444;SDS011;3764;48.126;11.594;2023-08-06T14:47:48;1.40;;;0.60;;
7444;SDS011;3764;48.126;11.594;2023-08-06T14:50:15;1.25;;;0.70;;
7444;SDS011;3764;48.126;11.594;2023-08-06T14:52:42;1.10;;;0.70;;
7444;SDS011;3764;48.126;11.594;2023-08-06T14:55:09;0.90;;;0.70;;
7444;SDS011;3764;48.126;11.594;2023-08-06T14:57:37;0.90;;;0.73;;
7444;SDS011;3764;48.126;11.594;2023-08-06T15:00:05;2.20;;;0.90;;
7444;SDS011;3764;48.126;11.594;2023-08-06T15:02:35;0.90;;;0.60;;
7444;SDS011;3764;48.126;11.594;2023-08-06T15:05:03;1.73;;;0.98;;
7444;SDS011;3764;48.126;11.594;2023-08-06T15:07:30;1.60;;;1.00;;
7444;SDS011;3764;48.126;11.594;2023-08-06T15:10:00;1.33;;;0.80;;
7444;SDS011;3764;48.126;11.594;2023-08-06T15:12:28;1.10;;;0.80;;